createdAt,value
2023-05-11T00:01:09.025Z,4.20
2023-05-11T00:03:36.083Z,3.13
2023-05-11T00:06:03.305Z,3.60
2023-05-11T00:08:30.458Z,3.38
2023-05-11T00:10:57.278Z,3.47
2023-05-11T00:13:24.061Z,2.88
2023-05-11T00:15:52.016Z,3.90
2023-05-11T00:18:18.903Z,3.60
2023-05-11T00:20:46.273Z,3.97
2023-05-11T00:25:57.254Z,3.53
2023-05-11T00:31:08.514Z,3.22
2023-05-11T00:33:35.307Z,3.80
2023-05-11T00:36:03.831Z,3.95
2023-05-11T00:38:30.905Z,4.35
2023-05-11T00:40:58.386Z,4.60
2023-05-11T00:43:25.282Z,4.45
2023-05-11T00:45:53.522Z,3.97
2023-05-11T00:48:20.462Z,4.03
2023-05-11T00:50:47.872Z,3.15
2023-05-11T00:53:15.120Z,4.90
2023-05-11T00:55:42.376Z,4.47
2023-05-11T00:58:09.204Z,3.97
2023-05-11T01:00:36.883Z,5.07
2023-05-11T01:03:04.585Z,4.13
2023-05-11T01:05:44.284Z,4.78
2023-05-11T01:08:37.183Z,4.55
2023-05-11T01:11:31.006Z,4.57
2023-05-11T01:16:59.520Z,5.43
2023-05-11T01:19:41.620Z,4.90
2023-05-11T01:22:46.095Z,5.32
2023-05-11T01:25:22.216Z,5.10
2023-05-11T01:28:21.544Z,5.30
2023-05-11T01:31:10.843Z,5.50
2023-05-11T01:33:44.520Z,5.82
2023-05-11T01:36:12.990Z,6.80
2023-05-11T01:38:42.416Z,6.47
2023-05-11T01:41:16.542Z,6.43
2023-05-11T01:43:45.944Z,6.85
2023-05-11T01:46:16.016Z,6.10
2023-05-11T01:48:47.497Z,4.75
2023-05-11T01:51:16.017Z,7.50
2023-05-11T01:53:45.069Z,8.02
2023-05-11T01:56:12.627Z,8.52
2023-05-11T01:58:41.599Z,7.70
2023-05-11T02:01:09.490Z,8.68
2023-05-11T02:03:37.863Z,6.80
2023-05-11T02:06:06.748Z,6.45
2023-05-11T02:08:36.501Z,8.93
2023-05-11T02:11:04.482Z,6.85
2023-05-11T02:13:51.840Z,7.43
2023-05-11T02:16:19.823Z,8.73
2023-05-11T02:18:49.200Z,9.30
2023-05-11T02:21:17.240Z,9.75
2023-05-11T02:23:46.890Z,9.45
2023-05-11T02:26:16.805Z,9.43
2023-05-11T02:28:44.064Z,10.35
2023-05-11T02:31:19.156Z,9.30
2023-05-11T02:33:52.106Z,8.80
2023-05-11T02:36:22.715Z,10.45
2023-05-11T02:38:58.579Z,10.18
2023-05-11T02:41:28.914Z,10.38
2023-05-11T02:44:01.731Z,11.07
2023-05-11T02:46:33.413Z,9.85
2023-05-11T02:49:04.974Z,10.65
2023-05-11T02:51:51.775Z,11.02
2023-05-11T02:54:19.682Z,11.48
2023-05-11T02:56:51.548Z,11.00
2023-05-11T02:59:19.091Z,10.52
2023-05-11T03:01:46.478Z,11.10
2023-05-11T03:04:13.567Z,11.52
2023-05-11T03:06:40.610Z,9.20
2023-05-11T03:09:10.317Z,10.32
2023-05-11T03:11:43.245Z,10.00
2023-05-11T03:14:10.894Z,8.93
2023-05-11T03:16:39.023Z,8.93
2023-05-11T03:24:39.450Z,7.80
2023-05-11T03:27:09.343Z,8.02
2023-05-11T03:29:40.091Z,9.35
2023-05-11T03:32:07.122Z,8.30
2023-05-11T03:34:55.649Z,9.70
2023-05-11T03:37:23.090Z,9.30
2023-05-11T03:39:54.993Z,8.90
2023-05-11T03:42:22.472Z,8.82
2023-05-11T03:44:54.391Z,10.82
2023-05-11T03:47:22.632Z,9.93
2023-05-11T03:49:51.390Z,8.55
2023-05-11T03:55:06.219Z,10.95
2023-05-11T03:57:33.419Z,9.40
2023-05-11T04:00:00.393Z,7.90
2023-05-11T04:02:27.506Z,10.63
2023-05-11T04:04:54.391Z,9.80
2023-05-11T04:07:21.535Z,9.07
2023-05-11T04:09:48.340Z,6.95
2023-05-11T04:12:15.085Z,9.02
2023-05-11T04:14:42.072Z,7.13
2023-05-11T04:17:08.844Z,6.00
2023-05-11T04:19:35.872Z,6.75
2023-05-11T04:22:02.651Z,7.47
2023-05-11T04:24:30.775Z,7.30
2023-05-11T04:26:57.709Z,7.28
2023-05-11T04:29:25.278Z,8.32
2023-05-11T04:31:52.142Z,6.75
2023-05-11T04:34:19.095Z,8.30
2023-05-11T04:37:07.405Z,7.18
2023-05-11T04:39:35.740Z,5.95
2023-05-11T04:42:03.255Z,7.10
2023-05-11T04:44:30.100Z,7.45
2023-05-11T04:49:41.657Z,7.60
2023-05-11T04:52:08.411Z,6.80
2023-05-11T04:54:36.853Z,7.10
2023-05-11T04:57:03.697Z,8.02
2023-05-11T04:59:31.021Z,7.00
2023-05-11T05:01:57.930Z,7.07
2023-05-11T05:04:24.786Z,6.78
2023-05-11T05:06:51.511Z,6.45
2023-05-11T05:09:18.705Z,6.85
2023-05-11T05:11:45.508Z,7.32
2023-05-11T05:14:12.452Z,6.93
2023-05-11T05:16:39.268Z,5.88
2023-05-11T05:19:06.130Z,5.95
2023-05-11T05:21:35.856Z,5.55
2023-05-11T05:24:06.906Z,5.18
2023-05-11T05:26:33.758Z,6.38
2023-05-11T05:29:00.617Z,6.40
2023-05-11T05:31:27.516Z,6.13
2023-05-11T05:34:16.272Z,5.43
2023-05-11T05:36:43.842Z,5.82
2023-05-11T05:39:12.179Z,4.95
2023-05-11T05:41:42.075Z,4.80
2023-05-11T05:44:09.725Z,5.15
2023-05-11T05:46:37.678Z,4.47
2023-05-11T05:49:04.877Z,5.05
2023-05-11T05:51:32.791Z,5.13
2023-05-11T05:53:59.655Z,5.05
2023-05-11T05:56:27.072Z,5.32
2023-05-11T05:58:53.817Z,5.32
2023-05-11T06:01:22.015Z,4.95
2023-05-11T06:03:52.074Z,5.53
2023-05-11T06:06:19.828Z,5.53
2023-05-11T06:08:47.039Z,5.50
2023-05-11T06:11:14.014Z,5.60
2023-05-11T06:13:41.048Z,5.00
2023-05-11T06:16:07.909Z,4.90
2023-05-11T06:18:36.259Z,4.25
2023-05-11T06:21:06.341Z,4.60
2023-05-11T06:23:33.519Z,4.10
2023-05-11T06:26:00.352Z,4.10
2023-05-11T06:28:30.120Z,4.38
2023-05-11T06:31:00.601Z,4.70
2023-05-11T06:33:31.567Z,3.58
2023-05-11T06:35:59.239Z,4.22
2023-05-11T06:38:29.267Z,3.67
2023-05-11T06:40:56.601Z,3.65
2023-05-11T06:43:23.488Z,2.90
2023-05-11T06:45:52.896Z,4.30
2023-05-11T06:48:23.430Z,4.75
2023-05-11T06:50:50.395Z,2.95
2023-05-11T06:53:18.094Z,3.67
2023-05-11T06:55:45.149Z,3.55
2023-05-11T06:58:12.193Z,3.85
2023-05-11T07:00:39.548Z,3.20
2023-05-11T07:03:06.898Z,3.13
2023-05-11T07:05:34.090Z,2.53
2023-05-11T07:08:00.883Z,3.30
2023-05-11T07:10:27.776Z,2.90
2023-05-11T07:12:54.608Z,3.30
2023-05-11T07:15:21.570Z,2.55
2023-05-11T07:17:48.415Z,3.28
2023-05-11T07:20:15.240Z,3.83
2023-05-11T07:22:42.192Z,3.33
2023-05-11T07:25:12.278Z,3.22
2023-05-11T07:27:57.862Z,3.13
2023-05-11T07:30:25.750Z,3.83
2023-05-11T07:32:52.793Z,3.95
2023-05-11T07:35:20.347Z,4.00
2023-05-11T07:37:48.370Z,4.10
2023-05-11T07:40:15.207Z,3.67
2023-05-11T07:42:42.115Z,4.47
2023-05-11T07:45:09.249Z,3.83
2023-05-11T07:47:36.936Z,4.38
2023-05-11T07:50:04.280Z,4.57
2023-05-11T07:52:31.016Z,3.92
2023-05-11T07:54:57.906Z,4.05
2023-05-11T07:57:24.773Z,4.03
2023-05-11T07:59:51.612Z,4.13
2023-05-11T08:02:19.242Z,3.63
2023-05-11T08:05:05.116Z,3.60
2023-05-11T08:07:50.426Z,3.22
2023-05-11T08:10:17.508Z,3.35
2023-05-11T08:12:44.295Z,2.50
2023-05-11T08:15:11.683Z,3.30
2023-05-11T08:17:38.531Z,3.03
2023-05-11T08:20:06.839Z,3.20
2023-05-11T08:22:33.685Z,3.90
2023-05-11T08:25:00.844Z,3.33
2023-05-11T08:27:27.639Z,3.75
2023-05-11T08:29:55.476Z,3.33
2023-05-11T08:32:22.649Z,3.50
2023-05-11T08:34:49.783Z,2.88
2023-05-11T08:37:35.570Z,2.30
2023-05-11T08:40:02.358Z,2.45
2023-05-11T08:42:33.436Z,1.58
2023-05-11T08:45:02.080Z,1.95
2023-05-11T08:47:29.213Z,2.58
2023-05-11T08:49:56.492Z,2.67
2023-05-11T08:52:23.384Z,2.92
2023-05-11T08:54:50.420Z,3.03
2023-05-11T08:57:17.957Z,3.15
2023-05-11T08:59:46.423Z,4.90
2023-05-11T09:02:18.275Z,3.33
2023-05-11T09:04:48.211Z,4.32
2023-05-11T09:07:18.206Z,6.97
2023-05-11T09:09:47.965Z,7.13
2023-05-11T09:12:16.609Z,6.97
2023-05-11T09:14:43.901Z,7.00
2023-05-11T09:17:11.080Z,7.22
2023-05-11T09:19:57.118Z,6.65
2023-05-11T09:22:24.414Z,8.30
2023-05-11T09:25:13.070Z,6.25
2023-05-11T09:27:44.193Z,8.00
2023-05-11T09:30:22.843Z,7.32
2023-05-11T09:32:57.279Z,6.53
2023-05-11T09:35:29.456Z,7.63
2023-05-11T09:38:02.571Z,7.57
2023-05-11T09:40:34.272Z,6.15
2023-05-11T09:43:18.518Z,7.97
2023-05-11T09:45:47.212Z,6.63
2023-05-11T09:48:31.818Z,7.10
2023-05-11T09:51:09.074Z,7.22
2023-05-11T09:53:44.666Z,5.80
2023-05-11T09:56:15.732Z,6.70
2023-05-11T09:58:54.991Z,7.60
2023-05-11T10:01:30.931Z,6.32
2023-05-11T10:04:13.311Z,8.43
2023-05-11T10:06:50.276Z,6.88
2023-05-11T10:09:23.382Z,6.97
2023-05-11T10:11:51.390Z,6.80
2023-05-11T10:14:19.356Z,7.47
2023-05-11T10:16:47.219Z,7.30
2023-05-11T10:19:15.104Z,6.78
2023-05-11T10:21:42.428Z,7.82
2023-05-11T10:24:10.975Z,6.55
2023-05-11T10:26:38.611Z,7.35
2023-05-11T10:29:05.542Z,7.78
2023-05-11T10:31:33.099Z,8.35
2023-05-11T10:34:01.562Z,8.02
2023-05-11T10:36:28.672Z,7.20
2023-05-11T10:38:55.473Z,8.88
2023-05-11T10:41:30.534Z,9.27
2023-05-11T10:44:20.228Z,7.63
2023-05-11T10:47:02.668Z,7.55
2023-05-11T10:50:07.174Z,8.07
2023-05-11T10:53:06.187Z,7.95
2023-05-11T10:55:54.773Z,8.55
2023-05-11T10:58:32.346Z,8.13
2023-05-11T11:01:18.021Z,8.55
2023-05-11T11:04:06.254Z,8.20
2023-05-11T11:06:34.973Z,9.38
2023-05-11T11:09:08.131Z,8.32
2023-05-11T11:11:46.417Z,8.90
2023-05-11T11:14:15.143Z,8.82
2023-05-11T11:17:35.389Z,9.10
2023-05-11T11:20:10.188Z,7.82
2023-05-11T11:22:41.285Z,7.82
2023-05-11T11:25:16.456Z,7.22
2023-05-11T11:28:01.945Z,6.32
2023-05-11T11:30:30.800Z,7.00
2023-05-11T11:33:09.740Z,6.55
2023-05-11T11:35:39.511Z,8.05
2023-05-11T11:38:14.814Z,8.20
2023-05-11T11:40:51.367Z,8.27
2023-05-11T11:43:24.681Z,8.13
2023-05-11T11:45:56.281Z,7.13
2023-05-11T11:48:24.392Z,7.68
2023-05-11T11:51:26.408Z,6.13
2023-05-11T11:53:53.098Z,8.00
2023-05-11T11:56:22.785Z,7.53
2023-05-11T11:58:49.535Z,6.30
2023-05-11T12:01:21.986Z,6.82
2023-05-11T12:04:16.774Z,6.10
2023-05-11T12:06:48.054Z,7.65
2023-05-11T12:09:18.546Z,7.53
2023-05-11T12:11:47.832Z,7.10
2023-05-11T12:14:16.123Z,7.32
2023-05-11T12:16:42.929Z,5.70
2023-05-11T12:19:09.779Z,6.55
2023-05-11T12:21:37.414Z,6.68
2023-05-11T12:24:05.770Z,5.53
2023-05-11T12:26:34.356Z,7.95
2023-05-11T12:29:09.579Z,7.97
2023-05-11T12:31:37.812Z,8.73
2023-05-11T12:34:04.848Z,9.10
2023-05-11T12:36:33.371Z,8.55
2023-05-11T12:39:00.799Z,10.15
2023-05-11T12:41:27.741Z,8.25
2023-05-11T12:43:56.244Z,7.90
2023-05-11T12:46:23.820Z,8.00
2023-05-11T12:48:51.701Z,6.78
2023-05-11T12:51:49.310Z,8.20
2023-05-11T12:54:38.422Z,8.25
2023-05-11T12:57:07.785Z,7.53
2023-05-11T12:59:40.714Z,8.15
2023-05-11T13:02:11.537Z,7.10
2023-05-11T13:04:59.405Z,6.75
2023-05-11T13:07:28.324Z,7.18
2023-05-11T13:09:59.872Z,7.80
2023-05-11T13:12:30.188Z,6.60
2023-05-11T13:15:12.731Z,8.05
2023-05-11T13:17:42.678Z,8.57
2023-05-11T13:20:26.627Z,7.32
2023-05-11T13:23:22.714Z,7.55
2023-05-11T13:28:38.195Z,7.90
2023-05-11T13:31:07.386Z,8.60
2023-05-11T13:33:34.722Z,7.15
2023-05-11T13:36:02.153Z,7.32
2023-05-11T13:38:28.989Z,7.00
2023-05-11T13:40:55.741Z,7.90
2023-05-11T13:43:22.564Z,7.75
2023-05-11T13:46:08.237Z,7.07
2023-05-11T13:48:35.018Z,7.22
2023-05-11T13:51:01.923Z,5.22
2023-05-11T13:53:28.699Z,4.38
2023-05-11T13:55:55.436Z,4.50
2023-05-11T13:58:22.282Z,6.05
2023-05-11T14:01:06.638Z,8.15
2023-05-11T14:03:35.122Z,5.80
2023-05-11T14:06:03.160Z,6.90
2023-05-11T14:08:29.945Z,6.32
2023-05-11T14:10:56.930Z,9.82
2023-05-11T14:13:23.977Z,9.98
2023-05-11T14:15:51.844Z,14.25
2023-05-11T14:18:18.854Z,13.27
2023-05-11T14:20:46.107Z,12.48
2023-05-11T14:23:12.938Z,17.10
2023-05-11T14:25:39.757Z,8.48
2023-05-11T14:28:06.827Z,13.85
2023-05-11T14:30:33.770Z,14.43
2023-05-11T14:33:00.879Z,14.23
2023-05-11T14:35:27.793Z,8.43
2023-05-11T14:37:54.809Z,10.35
2023-05-11T14:40:22.163Z,6.00
2023-05-11T14:42:49.028Z,5.88
2023-05-11T14:45:16.927Z,6.85
2023-05-11T14:47:44.149Z,7.50
2023-05-11T14:50:11.094Z,5.70
2023-05-11T14:52:37.908Z,7.57
2023-05-11T14:55:05.291Z,7.07
2023-05-11T14:57:32.552Z,6.70
2023-05-11T15:00:00.406Z,8.23
2023-05-11T15:02:29.062Z,7.10
2023-05-11T15:04:56.049Z,7.28
2023-05-11T15:07:23.010Z,7.05
2023-05-11T15:09:50.819Z,6.53
2023-05-11T15:12:17.665Z,5.95
2023-05-11T15:14:44.600Z,6.35
2023-05-11T15:17:11.473Z,6.47
2023-05-11T15:19:38.226Z,6.88
2023-05-11T15:22:05.889Z,6.93
2023-05-11T15:24:33.927Z,7.63
2023-05-11T15:27:00.887Z,7.38
2023-05-11T15:29:27.740Z,7.50
2023-05-11T15:31:54.735Z,8.25
2023-05-11T15:34:21.626Z,8.30
2023-05-11T15:36:49.876Z,6.63
2023-05-11T15:39:17.741Z,7.38
2023-05-11T15:41:44.573Z,6.90
2023-05-11T15:44:11.361Z,8.02
2023-05-11T15:46:39.041Z,8.00
2023-05-11T15:49:06.382Z,7.50
2023-05-11T15:51:33.163Z,7.30
2023-05-11T15:54:00.052Z,8.45
2023-05-11T15:56:27.052Z,7.88
2023-05-11T15:58:54.024Z,9.52
2023-05-11T16:01:21.299Z,9.80
2023-05-11T16:03:48.258Z,9.15
2023-05-11T16:06:15.111Z,7.93
2023-05-11T16:08:41.942Z,9.13
2023-05-11T16:11:09.271Z,9.68
2023-05-11T16:13:36.003Z,8.05
2023-05-11T16:16:03.003Z,9.57
2023-05-11T16:18:29.795Z,7.50
2023-05-11T16:20:56.589Z,8.75
2023-05-11T16:23:25.464Z,9.43
2023-05-11T16:25:52.658Z,8.38
2023-05-11T16:28:19.841Z,7.78
2023-05-11T16:31:05.702Z,8.05
2023-05-11T16:33:51.563Z,8.93
2023-05-11T16:36:18.370Z,6.38
2023-05-11T16:38:45.125Z,7.53
2023-05-11T16:41:12.133Z,9.25
2023-05-11T16:43:41.840Z,9.27
2023-05-11T16:46:27.705Z,7.32
2023-05-11T16:49:13.313Z,7.40
2023-05-11T16:51:40.220Z,8.10
2023-05-11T16:54:07.276Z,7.40
2023-05-11T16:56:34.092Z,8.18
2023-05-11T16:59:00.896Z,7.82
2023-05-11T17:01:28.549Z,7.15
2023-05-11T17:03:55.411Z,15.10
2023-05-11T17:06:24.029Z,10.25
2023-05-11T17:08:51.355Z,10.05
2023-05-11T17:11:18.430Z,9.13
2023-05-11T17:13:45.215Z,8.00
2023-05-11T17:16:12.074Z,9.45
2023-05-11T17:18:38.939Z,10.35
2023-05-11T17:21:06.009Z,11.75
2023-05-11T17:23:33.940Z,8.77
2023-05-11T17:26:18.969Z,8.82
2023-05-11T17:28:45.847Z,10.18
2023-05-11T17:31:14.915Z,9.63
2023-05-11T17:33:42.910Z,8.05
2023-05-11T17:36:09.998Z,8.82
2023-05-11T17:38:36.996Z,9.02
2023-05-11T17:41:07.662Z,6.55
2023-05-11T17:43:35.929Z,7.80
2023-05-11T17:46:04.238Z,9.35
2023-05-11T17:48:32.142Z,9.48
2023-05-11T17:50:59.138Z,10.35
2023-05-11T17:53:27.371Z,11.32
2023-05-11T17:55:54.522Z,9.90
2023-05-11T17:58:39.950Z,9.00
2023-05-11T18:01:13.783Z,9.70
2023-05-11T18:03:41.318Z,9.73
2023-05-11T18:06:08.599Z,9.88
2023-05-11T18:08:36.703Z,9.68
2023-05-11T18:11:03.679Z,7.75
2023-05-11T18:13:31.613Z,8.05
2023-05-11T18:15:59.754Z,9.13
2023-05-11T18:18:26.813Z,8.23
2023-05-11T18:23:38.597Z,8.85
2023-05-11T18:26:06.130Z,9.43
2023-05-11T18:28:33.055Z,9.80
2023-05-11T18:30:59.809Z,9.85
2023-05-11T18:33:26.802Z,8.77
2023-05-11T18:35:53.762Z,9.90
2023-05-11T18:38:20.581Z,9.63
2023-05-11T18:40:47.805Z,9.25
2023-05-11T18:43:14.676Z,11.63
2023-05-11T18:45:41.559Z,10.38
2023-05-11T18:48:08.610Z,10.65
2023-05-11T18:50:35.869Z,9.77
2023-05-11T18:53:02.873Z,10.35
2023-05-11T18:55:35.424Z,9.65
2023-05-11T18:58:08.071Z,10.23
2023-05-11T19:00:37.512Z,8.57
2023-05-11T19:03:23.077Z,8.20
2023-05-11T19:05:50.878Z,9.35
2023-05-11T19:08:17.765Z,10.02
2023-05-11T19:10:45.613Z,8.60
2023-05-11T19:13:13.233Z,9.35
2023-05-11T19:15:40.443Z,9.75
2023-05-11T19:18:08.043Z,8.95
2023-05-11T19:20:34.951Z,9.57
2023-05-11T19:23:02.143Z,9.90
2023-05-11T19:25:29.155Z,8.35
2023-05-11T19:27:57.389Z,10.15
2023-05-11T19:30:24.902Z,9.23
2023-05-11T19:33:10.164Z,8.85
2023-05-11T19:35:38.259Z,7.65
2023-05-11T19:38:06.389Z,11.77
2023-05-11T19:43:06.182Z,11.38
2023-05-11T19:45:33.267Z,10.98
2023-05-11T19:50:44.802Z,7.10
2023-05-11T19:53:11.531Z,9.20
2023-05-11T19:55:40.298Z,8.05
2023-05-11T19:58:07.536Z,9.13
2023-05-11T20:03:18.713Z,8.27
2023-05-11T20:05:45.637Z,8.25
2023-05-11T20:08:12.476Z,9.98
2023-05-11T20:10:39.479Z,9.55
2023-05-11T20:13:08.156Z,9.85
2023-05-11T20:15:35.093Z,8.68
2023-05-11T20:18:20.701Z,8.00
2023-05-11T20:20:47.590Z,8.52
2023-05-11T20:23:14.448Z,9.18
2023-05-11T20:25:43.921Z,8.95
2023-05-11T20:28:11.938Z,6.82
2023-05-11T20:30:38.872Z,8.57
2023-05-11T20:35:38.408Z,8.73
2023-05-11T20:38:05.182Z,9.32
2023-05-11T20:40:32.096Z,8.25
2023-05-11T20:42:58.902Z,9.93
2023-05-11T20:45:25.722Z,9.35
2023-05-11T20:47:52.714Z,8.98
2023-05-11T20:50:19.794Z,8.27
2023-05-11T20:52:47.141Z,9.55
2023-05-11T20:55:13.927Z,10.40
2023-05-11T20:57:40.722Z,9.07
2023-05-11T21:00:08.380Z,8.68
2023-05-11T21:02:35.435Z,8.40
2023-05-11T21:05:02.708Z,7.38
2023-05-11T21:07:29.966Z,6.95
2023-05-11T21:09:56.757Z,7.82
2023-05-11T21:12:23.625Z,8.52
2023-05-11T21:14:50.456Z,6.60
2023-05-11T21:17:17.342Z,8.70
2023-05-11T21:19:44.226Z,7.75
2023-05-11T21:22:10.984Z,7.97
2023-05-11T21:24:37.839Z,8.88
2023-05-11T21:27:04.849Z,10.13
2023-05-11T21:29:31.600Z,8.25
2023-05-11T21:31:58.418Z,9.55
2023-05-11T21:34:25.216Z,9.07
2023-05-11T21:36:52.343Z,8.35
2023-05-11T21:39:19.195Z,9.85
2023-05-11T21:42:04.971Z,9.55
2023-05-11T21:44:31.848Z,8.38
2023-05-11T21:46:58.907Z,9.60
2023-05-11T21:49:26.298Z,7.35
2023-05-11T21:51:53.336Z,8.23
2023-05-11T21:54:22.420Z,9.73
2023-05-11T21:56:50.284Z,10.52
2023-05-11T21:59:17.891Z,9.25
2023-05-11T22:04:30.536Z,8.88
2023-05-11T22:07:01.579Z,8.55
2023-05-11T22:09:29.065Z,8.55
2023-05-11T22:12:33.532Z,8.88
2023-05-11T22:15:00.495Z,8.77
2023-05-11T22:17:27.262Z,8.70
2023-05-11T22:19:54.098Z,8.20
2023-05-11T22:22:20.896Z,8.77
2023-05-11T22:24:47.726Z,8.52
2023-05-11T22:27:17.277Z,8.90
2023-05-11T22:29:44.140Z,8.80
2023-05-11T22:32:29.684Z,9.07
2023-05-11T22:34:58.479Z,7.47
2023-05-11T22:37:26.510Z,8.63
2023-05-11T22:39:54.270Z,8.52
2023-05-11T22:42:22.110Z,9.02
2023-05-11T22:44:49.139Z,7.68
2023-05-11T22:47:34.720Z,7.13
2023-05-11T22:50:01.755Z,6.30
2023-05-11T22:52:28.597Z,7.55
2023-05-11T22:54:58.009Z,8.20
2023-05-11T22:57:26.573Z,7.30
2023-05-11T22:59:53.402Z,6.18
2023-05-11T23:02:20.331Z,7.13
2023-05-11T23:04:53.361Z,7.82
2023-05-11T23:07:20.250Z,7.38
2023-05-11T23:09:47.233Z,7.93
2023-05-11T23:12:14.061Z,5.28
2023-05-11T23:14:41.836Z,7.20
2023-05-11T23:17:09.174Z,7.50
2023-05-11T23:19:36.124Z,7.28
2023-05-11T23:22:03.205Z,8.73
2023-05-11T23:24:30.078Z,8.63
2023-05-11T23:26:56.913Z,7.18
2023-05-11T23:29:24.483Z,7.60
2023-05-11T23:31:51.610Z,7.00
2023-05-11T23:34:18.930Z,5.38
2023-05-11T23:36:46.695Z,5.13
2023-05-11T23:39:13.856Z,7.03
2023-05-11T23:41:40.812Z,4.57
2023-05-11T23:44:07.685Z,5.40
2023-05-11T23:46:34.782Z,4.22
2023-05-11T23:49:02.025Z,5.53
2023-05-11T23:51:28.833Z,5.40
2023-05-11T23:56:39.900Z,6.35
2023-05-11T23:59:06.805Z,6.15
